sensor_id;sensor_type;location;lat;lon;timestamp;P1;durP1;ratioP1;P2;durP2;ratioP2
10827;SDS011;5467;59.334;13.512;2023-03-20T00:00:41;1.40;;;0.97;;
10827;SDS011;5467;59.334;13.512;2023-03-20T00:03:09;1.00;;;1.00;;
10827;SDS011;5467;59.334;13.512;2023-03-20T00:05:37;1.30;;;1.30;;
10827;SDS011;5467;59.334;13.512;2023-03-20T00:08:04;1.20;;;1.10;;
10827;SDS011;5467;59.334;13.512;2023-03-20T00:10:33;2.17;;;1.33;;
10827;SDS011;5467;59.334;13.512;2023-03-20T00:13:03;1.20;;;1.20;;
10827;SDS011;5467;59.334;13.512;2023-03-20T00:15:32;1.30;;;1.20;;
10827;SDS011;5467;59.334;13.512;2023-03-20T00:18:03;1.73;;;1.50;;
10827;SDS011;5467;59.334;13.512;2023-03-20T00:20:39;2.83;;;2.50;;
10827;SDS011;5467;59.334;13.512;2023-03-20T00:23:06;2.50;;;1.73;;
10827;SDS011;5467;59.334;13.512;2023-03-20T00:25:33;1.93;;;1.70;;
10827;SDS011;5467;59.334;13.512;2023-03-20T00:28:01;2.27;;;2.07;;
10827;SDS011;5467;59.334;13.512;2023-03-20T00:30:29;4.07;;;2.90;;
10827;SDS011;5467;59.334;13.512;2023-03-20T00:32:57;6.90;;;3.43;;
10827;SDS011;5467;59.334;13.512;2023-03-20T00:35:27;2.10;;;1.97;;
10827;SDS011;5467;59.334;13.512;2023-03-20T00:37:56;5.00;;;3.73;;
10827;SDS011;5467;59.334;13.512;2023-03-20T00:40:25;4.63;;;3.30;;
10827;SDS011;5467;59.334;13.512;2023-03-20T00:42:55;4.00;;;2.17;;
10827;SDS011;5467;59.334;13.512;2023-03-20T00:45:25;3.67;;;2.63;;
10827;SDS011;5467;59.334;13.512;2023-03-20T00:47:53;2.10;;;2.00;;
10827;SDS011;5467;59.334;13.512;2023-03-20T00:50:23;3.80;;;3.30;;
10827;SDS011;5467;59.334;13.512;2023-03-20T00:52:53;2.47;;;2.20;;
10827;SDS011;5467;59.334;13.512;2023-03-20T00:55:20;1.60;;;1.50;;
10827;SDS011;5467;59.334;13.512;2023-03-20T00:57:50;2.03;;;1.63;;
10827;SDS011;5467;59.334;13.512;2023-03-20T01:00:25;1.50;;;1.40;;
10827;SDS011;5467;59.334;13.512;2023-03-20T01:03:00;7.20;;;5.53;;
10827;SDS011;5467;59.334;13.512;2023-03-20T01:05:30;10.10;;;5.60;;
10827;SDS011;5467;59.334;13.512;2023-03-20T01:07:58;6.13;;;3.97;;
10827;SDS011;5467;59.334;13.512;2023-03-20T01:10:26;14.93;;;8.23;;
10827;SDS011;5467;59.334;13.512;2023-03-20T01:12:56;5.87;;;3.93;;
10827;SDS011;5467;59.334;13.512;2023-03-20T01:15:26;6.00;;;2.87;;
10827;SDS011;5467;59.334;13.512;2023-03-20T01:17:57;7.67;;;5.07;;
10827;SDS011;5467;59.334;13.512;2023-03-20T01:20:26;1.80;;;1.17;;
10827;SDS011;5467;59.334;13.512;2023-03-20T01:22:55;1.87;;;1.77;;
10827;SDS011;5467;59.334;13.512;2023-03-20T01:25:23;1.23;;;1.13;;
10827;SDS011;5467;59.334;13.512;2023-03-20T01:27:51;1.10;;;1.10;;
10827;SDS011;5467;59.334;13.512;2023-03-20T01:30:20;1.20;;;1.10;;
10827;SDS011;5467;59.334;13.512;2023-03-20T01:32:50;1.63;;;1.53;;
10827;SDS011;5467;59.334;13.512;2023-03-20T01:35:17;2.47;;;2.27;;
10827;SDS011;5467;59.334;13.512;2023-03-20T01:37:47;1.57;;;1.47;;
10827;SDS011;5467;59.334;13.512;2023-03-20T01:43:01;0.90;;;0.90;;
10827;SDS011;5467;59.334;13.512;2023-03-20T01:45:30;0.80;;;0.80;;
10827;SDS011;5467;59.334;13.512;2023-03-20T01:48:01;0.70;;;0.70;;
10827;SDS011;5467;59.334;13.512;2023-03-20T01:50:37;0.90;;;0.90;;
10827;SDS011;5467;59.334;13.512;2023-03-20T01:53:07;0.80;;;0.80;;
10827;SDS011;5467;59.334;13.512;2023-03-20T01:55:41;0.90;;;0.90;;
10827;SDS011;5467;59.334;13.512;2023-03-20T01:58:11;0.80;;;0.80;;
10827;SDS011;5467;59.334;13.512;2023-03-20T02:00:42;0.80;;;0.80;;
10827;SDS011;5467;59.334;13.512;2023-03-20T02:03:10;0.80;;;0.80;;
10827;SDS011;5467;59.334;13.512;2023-03-20T02:05:38;1.10;;;1.10;;
10827;SDS011;5467;59.334;13.512;2023-03-20T02:08:09;0.87;;;0.87;;
10827;SDS011;5467;59.334;13.512;2023-03-20T02:10:44;0.97;;;0.97;;
10827;SDS011;5467;59.334;13.512;2023-03-20T02:13:14;1.10;;;1.10;;
10827;SDS011;5467;59.334;13.512;2023-03-20T02:15:55;0.80;;;0.80;;
10827;SDS011;5467;59.334;13.512;2023-03-20T02:18:25;0.90;;;0.90;;
10827;SDS011;5467;59.334;13.512;2023-03-20T02:21:05;0.90;;;0.90;;
10827;SDS011;5467;59.334;13.512;2023-03-20T02:24:12;0.80;;;0.80;;
10827;SDS011;5467;59.334;13.512;2023-03-20T02:27:24;0.83;;;0.83;;
10827;SDS011;5467;59.334;13.512;2023-03-20T02:39:29;0.80;;;0.80;;
10827;SDS011;5467;59.334;13.512;2023-03-20T02:42:18;1.00;;;1.00;;
10827;SDS011;5467;59.334;13.512;2023-03-20T02:44:55;0.93;;;0.93;;
10827;SDS011;5467;59.334;13.512;2023-03-20T02:47:30;0.80;;;0.80;;
10827;SDS011;5467;59.334;13.512;2023-03-20T02:50:02;1.00;;;1.00;;
10827;SDS011;5467;59.334;13.512;2023-03-20T02:52:40;0.80;;;0.80;;
10827;SDS011;5467;59.334;13.512;2023-03-20T02:55:15;0.70;;;0.70;;
10827;SDS011;5467;59.334;13.512;2023-03-20T02:57:50;0.70;;;0.70;;
10827;SDS011;5467;59.334;13.512;2023-03-20T03:00:25;0.73;;;0.73;;
10827;SDS011;5467;59.334;13.512;2023-03-20T03:02:56;0.60;;;0.60;;
10827;SDS011;5467;59.334;13.512;2023-03-20T03:05:31;0.60;;;0.60;;
10827;SDS011;5467;59.334;13.512;2023-03-20T03:08:03;0.70;;;0.70;;
10827;SDS011;5467;59.334;13.512;2023-03-20T03:10:36;0.50;;;0.50;;
10827;SDS011;5467;59.334;13.512;2023-03-20T03:13:08;0.50;;;0.50;;
10827;SDS011;5467;59.334;13.512;2023-03-20T03:15:41;0.67;;;0.67;;
10827;SDS011;5467;59.334;13.512;2023-03-20T03:18:10;0.50;;;0.50;;
10827;SDS011;5467;59.334;13.512;2023-03-20T03:20:41;0.50;;;0.50;;
10827;SDS011;5467;59.334;13.512;2023-03-20T03:23:18;0.60;;;0.60;;
10827;SDS011;5467;59.334;13.512;2023-03-20T03:25:52;0.50;;;0.50;;
10827;SDS011;5467;59.334;13.512;2023-03-20T03:28:22;0.50;;;0.50;;
10827;SDS011;5467;59.334;13.512;2023-03-20T03:30:55;0.50;;;0.50;;
10827;SDS011;5467;59.334;13.512;2023-03-20T03:33:25;0.50;;;0.50;;
10827;SDS011;5467;59.334;13.512;2023-03-20T03:36:01;0.50;;;0.50;;
10827;SDS011;5467;59.334;13.512;2023-03-20T03:38:38;0.50;;;0.50;;
10827;SDS011;5467;59.334;13.512;2023-03-20T03:41:15;0.50;;;0.50;;
10827;SDS011;5467;59.334;13.512;2023-03-20T03:43:48;0.50;;;0.50;;
10827;SDS011;5467;59.334;13.512;2023-03-20T03:46:21;0.40;;;0.40;;
10827;SDS011;5467;59.334;13.512;2023-03-20T03:48:55;0.50;;;0.50;;
10827;SDS011;5467;59.334;13.512;2023-03-20T03:51:24;0.40;;;0.40;;
10827;SDS011;5467;59.334;13.512;2023-03-20T03:53:56;0.50;;;0.50;;
10827;SDS011;5467;59.334;13.512;2023-03-20T03:56:28;0.60;;;0.60;;
10827;SDS011;5467;59.334;13.512;2023-03-20T03:58:58;0.50;;;0.50;;
10827;SDS011;5467;59.334;13.512;2023-03-20T04:01:28;0.40;;;0.40;;
10827;SDS011;5467;59.334;13.512;2023-03-20T04:03:59;0.40;;;0.40;;
10827;SDS011;5467;59.334;13.512;2023-03-20T04:06:28;0.50;;;0.50;;
10827;SDS011;5467;59.334;13.512;2023-03-20T04:08:57;0.40;;;0.40;;
10827;SDS011;5467;59.334;13.512;2023-03-20T04:11:25;0.40;;;0.40;;
10827;SDS011;5467;59.334;13.512;2023-03-20T04:13:54;0.40;;;0.40;;
10827;SDS011;5467;59.334;13.512;2023-03-20T04:16:22;0.50;;;0.50;;
10827;SDS011;5467;59.334;13.512;2023-03-20T04:18:50;0.30;;;0.30;;
10827;SDS011;5467;59.334;13.512;2023-03-20T04:21:17;0.40;;;0.40;;
10827;SDS011;5467;59.334;13.512;2023-03-20T04:23:45;0.30;;;0.30;;
10827;SDS011;5467;59.334;13.512;2023-03-20T04:26:12;0.40;;;0.40;;
10827;SDS011;5467;59.334;13.512;2023-03-20T04:28:39;0.40;;;0.40;;
10827;SDS011;5467;59.334;13.512;2023-03-20T04:31:08;0.33;;;0.33;;
10827;SDS011;5467;59.334;13.512;2023-03-20T04:33:35;0.33;;;0.33;;
10827;SDS011;5467;59.334;13.512;2023-03-20T04:36:02;0.40;;;0.40;;
10827;SDS011;5467;59.334;13.512;2023-03-20T04:38:30;0.40;;;0.40;;
10827;SDS011;5467;59.334;13.512;2023-03-20T04:40:57;0.50;;;0.50;;
10827;SDS011;5467;59.334;13.512;2023-03-20T04:43:24;0.40;;;0.40;;
10827;SDS011;5467;59.334;13.512;2023-03-20T04:45:51;0.30;;;0.30;;
10827;SDS011;5467;59.334;13.512;2023-03-20T04:48:20;0.30;;;0.30;;
10827;SDS011;5467;59.334;13.512;2023-03-20T04:50:48;0.40;;;0.40;;
10827;SDS011;5467;59.334;13.512;2023-03-20T04:53:15;0.40;;;0.40;;
10827;SDS011;5467;59.334;13.512;2023-03-20T04:55:43;0.30;;;0.30;;
10827;SDS011;5467;59.334;13.512;2023-03-20T04:58:12;0.40;;;0.40;;
10827;SDS011;5467;59.334;13.512;2023-03-20T05:00:39;0.50;;;0.50;;
10827;SDS011;5467;59.334;13.512;2023-03-20T05:03:06;0.60;;;0.60;;
10827;SDS011;5467;59.334;13.512;2023-03-20T05:05:34;0.40;;;0.40;;
10827;SDS011;5467;59.334;13.512;2023-03-20T05:08:02;0.67;;;0.67;;
10827;SDS011;5467;59.334;13.512;2023-03-20T05:10:30;0.57;;;0.57;;
10827;SDS011;5467;59.334;13.512;2023-03-20T05:12:57;0.50;;;0.50;;
10827;SDS011;5467;59.334;13.512;2023-03-20T05:15:24;1.00;;;0.70;;
10827;SDS011;5467;59.334;13.512;2023-03-20T05:17:52;1.20;;;0.73;;
10827;SDS011;5467;59.334;13.512;2023-03-20T05:20:19;0.90;;;0.90;;
10827;SDS011;5467;59.334;13.512;2023-03-20T05:22:48;1.30;;;1.20;;
10827;SDS011;5467;59.334;13.512;2023-03-20T05:25:16;0.87;;;0.87;;
10827;SDS011;5467;59.334;13.512;2023-03-20T05:27:43;1.57;;;1.47;;
10827;SDS011;5467;59.334;13.512;2023-03-20T05:30:12;1.33;;;1.23;;
10827;SDS011;5467;59.334;13.512;2023-03-20T05:32:40;0.90;;;0.90;;
10827;SDS011;5467;59.334;13.512;2023-03-20T05:35:08;1.90;;;1.80;;
10827;SDS011;5467;59.334;13.512;2023-03-20T05:37:35;0.60;;;0.60;;
10827;SDS011;5467;59.334;13.512;2023-03-20T05:40:05;1.40;;;1.30;;
10827;SDS011;5467;59.334;13.512;2023-03-20T05:42:33;1.20;;;1.20;;
10827;SDS011;5467;59.334;13.512;2023-03-20T05:45:00;1.30;;;1.20;;
10827;SDS011;5467;59.334;13.512;2023-03-20T05:47:27;1.40;;;1.13;;
10827;SDS011;5467;59.334;13.512;2023-03-20T05:49:54;1.00;;;1.00;;
10827;SDS011;5467;59.334;13.512;2023-03-20T05:52:21;1.00;;;1.00;;
10827;SDS011;5467;59.334;13.512;2023-03-20T05:54:48;0.60;;;0.60;;
10827;SDS011;5467;59.334;13.512;2023-03-20T05:57:17;0.80;;;0.80;;
10827;SDS011;5467;59.334;13.512;2023-03-20T05:59:44;0.90;;;0.90;;
10827;SDS011;5467;59.334;13.512;2023-03-20T06:02:11;0.70;;;0.70;;
10827;SDS011;5467;59.334;13.512;2023-03-20T06:04:38;1.20;;;1.17;;
10827;SDS011;5467;59.334;13.512;2023-03-20T06:07:05;1.23;;;1.23;;
10827;SDS011;5467;59.334;13.512;2023-03-20T06:09:32;1.00;;;1.00;;
10827;SDS011;5467;59.334;13.512;2023-03-20T06:11:59;0.97;;;0.97;;
10827;SDS011;5467;59.334;13.512;2023-03-20T06:14:28;1.40;;;1.30;;
10827;SDS011;5467;59.334;13.512;2023-03-20T06:16:55;0.77;;;0.77;;
10827;SDS011;5467;59.334;13.512;2023-03-20T06:19:22;1.10;;;1.00;;
10827;SDS011;5467;59.334;13.512;2023-03-20T06:21:49;2.30;;;2.03;;
10827;SDS011;5467;59.334;13.512;2023-03-20T06:24:17;1.07;;;0.97;;
10827;SDS011;5467;59.334;13.512;2023-03-20T06:26:44;3.00;;;2.70;;
10827;SDS011;5467;59.334;13.512;2023-03-20T06:29:11;1.10;;;1.00;;
10827;SDS011;5467;59.334;13.512;2023-03-20T06:31:39;4.13;;;3.03;;
10827;SDS011;5467;59.334;13.512;2023-03-20T06:34:07;1.03;;;1.00;;
10827;SDS011;5467;59.334;13.512;2023-03-20T06:36:34;2.30;;;1.77;;
10827;SDS011;5467;59.334;13.512;2023-03-20T06:39:02;4.83;;;3.53;;
10827;SDS011;5467;59.334;13.512;2023-03-20T06:41:29;2.20;;;2.00;;
10827;SDS011;5467;59.334;13.512;2023-03-20T06:43:56;2.43;;;1.87;;
10827;SDS011;5467;59.334;13.512;2023-03-20T06:46:24;1.00;;;1.00;;
10827;SDS011;5467;59.334;13.512;2023-03-20T06:48:52;1.67;;;1.57;;
10827;SDS011;5467;59.334;13.512;2023-03-20T06:51:20;0.80;;;0.80;;
10827;SDS011;5467;59.334;13.512;2023-03-20T06:53:47;2.00;;;1.80;;
10827;SDS011;5467;59.334;13.512;2023-03-20T06:56:14;1.67;;;1.53;;
10827;SDS011;5467;59.334;13.512;2023-03-20T06:58:42;1.13;;;1.13;;
10827;SDS011;5467;59.334;13.512;2023-03-20T07:01:09;1.40;;;1.30;;
10827;SDS011;5467;59.334;13.512;2023-03-20T07:03:37;1.90;;;1.40;;
10827;SDS011;5467;59.334;13.512;2023-03-20T07:06:06;1.30;;;1.20;;
10827;SDS011;5467;59.334;13.512;2023-03-20T07:08:35;0.77;;;0.77;;
10827;SDS011;5467;59.334;13.512;2023-03-20T07:11:03;0.70;;;0.70;;
10827;SDS011;5467;59.334;13.512;2023-03-20T07:13:31;0.73;;;0.73;;
10827;SDS011;5467;59.334;13.512;2023-03-20T07:15:59;0.50;;;0.50;;
10827;SDS011;5467;59.334;13.512;2023-03-20T07:18:27;1.30;;;1.20;;
10827;SDS011;5467;59.334;13.512;2023-03-20T07:20:57;0.63;;;0.63;;
10827;SDS011;5467;59.334;13.512;2023-03-20T07:23:27;0.80;;;0.80;;
10827;SDS011;5467;59.334;13.512;2023-03-20T07:25:54;0.40;;;0.40;;
10827;SDS011;5467;59.334;13.512;2023-03-20T07:28:22;0.60;;;0.60;;
10827;SDS011;5467;59.334;13.512;2023-03-20T07:30:49;0.40;;;0.40;;
10827;SDS011;5467;59.334;13.512;2023-03-20T07:33:16;0.50;;;0.50;;
10827;SDS011;5467;59.334;13.512;2023-03-20T07:35:45;0.40;;;0.40;;
10827;SDS011;5467;59.334;13.512;2023-03-20T07:38:12;0.50;;;0.50;;
10827;SDS011;5467;59.334;13.512;2023-03-20T07:40:40;0.30;;;0.30;;
10827;SDS011;5467;59.334;13.512;2023-03-20T07:43:08;0.40;;;0.40;;
10827;SDS011;5467;59.334;13.512;2023-03-20T07:45:35;0.30;;;0.30;;
10827;SDS011;5467;59.334;13.512;2023-03-20T07:48:02;0.40;;;0.40;;
10827;SDS011;5467;59.334;13.512;2023-03-20T07:50:29;0.30;;;0.30;;
10827;SDS011;5467;59.334;13.512;2023-03-20T07:52:56;0.30;;;0.30;;
10827;SDS011;5467;59.334;13.512;2023-03-20T07:55:24;0.40;;;0.40;;
10827;SDS011;5467;59.334;13.512;2023-03-20T07:57:53;0.30;;;0.30;;
10827;SDS011;5467;59.334;13.512;2023-03-20T08:00:20;0.40;;;0.40;;
10827;SDS011;5467;59.334;13.512;2023-03-20T08:02:47;0.30;;;0.30;;
10827;SDS011;5467;59.334;13.512;2023-03-20T08:05:14;0.43;;;0.43;;
10827;SDS011;5467;59.334;13.512;2023-03-20T08:07:42;0.40;;;0.40;;
10827;SDS011;5467;59.334;13.512;2023-03-20T08:10:10;0.40;;;0.40;;
10827;SDS011;5467;59.334;13.512;2023-03-20T08:12:37;0.30;;;0.30;;
10827;SDS011;5467;59.334;13.512;2023-03-20T08:15:07;0.30;;;0.30;;
10827;SDS011;5467;59.334;13.512;2023-03-20T08:17:34;0.33;;;0.33;;
10827;SDS011;5467;59.334;13.512;2023-03-20T08:20:02;0.40;;;0.40;;
10827;SDS011;5467;59.334;13.512;2023-03-20T08:22:31;0.50;;;0.50;;
10827;SDS011;5467;59.334;13.512;2023-03-20T08:24:58;0.40;;;0.40;;
10827;SDS011;5467;59.334;13.512;2023-03-20T08:27:25;0.40;;;0.40;;
10827;SDS011;5467;59.334;13.512;2023-03-20T08:29:52;0.40;;;0.40;;
10827;SDS011;5467;59.334;13.512;2023-03-20T08:32:21;0.40;;;0.40;;
10827;SDS011;5467;59.334;13.512;2023-03-20T08:34:48;0.30;;;0.30;;
10827;SDS011;5467;59.334;13.512;2023-03-20T08:37:15;0.40;;;0.40;;
10827;SDS011;5467;59.334;13.512;2023-03-20T08:39:42;0.40;;;0.40;;
10827;SDS011;5467;59.334;13.512;2023-03-20T08:42:09;0.40;;;0.40;;
10827;SDS011;5467;59.334;13.512;2023-03-20T08:44:37;0.40;;;0.40;;
10827;SDS011;5467;59.334;13.512;2023-03-20T08:47:04;0.40;;;0.40;;
10827;SDS011;5467;59.334;13.512;2023-03-20T08:49:33;0.40;;;0.40;;
10827;SDS011;5467;59.334;13.512;2023-03-20T08:52:01;0.40;;;0.40;;
10827;SDS011;5467;59.334;13.512;2023-03-20T08:54:28;0.40;;;0.40;;
10827;SDS011;5467;59.334;13.512;2023-03-20T08:56:55;0.37;;;0.37;;
10827;SDS011;5467;59.334;13.512;2023-03-20T08:59:23;0.40;;;0.40;;
10827;SDS011;5467;59.334;13.512;2023-03-20T09:01:50;0.50;;;0.50;;
10827;SDS011;5467;59.334;13.512;2023-03-20T09:04:17;0.40;;;0.40;;
10827;SDS011;5467;59.334;13.512;2023-03-20T09:06:45;0.30;;;0.30;;
10827;SDS011;5467;59.334;13.512;2023-03-20T09:09:13;0.40;;;0.40;;
10827;SDS011;5467;59.334;13.512;2023-03-20T09:11:42;0.30;;;0.30;;
10827;SDS011;5467;59.334;13.512;2023-03-20T09:14:10;0.40;;;0.40;;
10827;SDS011;5467;59.334;13.512;2023-03-20T09:16:37;0.30;;;0.30;;
10827;SDS011;5467;59.334;13.512;2023-03-20T09:19:04;0.40;;;0.40;;
10827;SDS011;5467;59.334;13.512;2023-03-20T09:21:31;0.40;;;0.40;;
10827;SDS011;5467;59.334;13.512;2023-03-20T09:24:00;0.40;;;0.40;;
10827;SDS011;5467;59.334;13.512;2023-03-20T09:26:27;0.40;;;0.40;;
10827;SDS011;5467;59.334;13.512;2023-03-20T09:28:54;0.40;;;0.40;;
10827;SDS011;5467;59.334;13.512;2023-03-20T09:31:21;0.40;;;0.40;;
10827;SDS011;5467;59.334;13.512;2023-03-20T09:33:48;0.40;;;0.40;;
10827;SDS011;5467;59.334;13.512;2023-03-20T09:36:15;0.40;;;0.40;;
10827;SDS011;5467;59.334;13.512;2023-03-20T09:38:42;0.30;;;0.30;;
10827;SDS011;5467;59.334;13.512;2023-03-20T09:41:13;0.40;;;0.40;;
10827;SDS011;5467;59.334;13.512;2023-03-20T09:43:48;0.53;;;0.50;;
10827;SDS011;5467;59.334;13.512;2023-03-20T09:46:47;0.40;;;0.40;;
10827;SDS011;5467;59.334;13.512;2023-03-20T09:49:28;0.30;;;0.30;;
10827;SDS011;5467;59.334;13.512;2023-03-20T09:52:03;0.30;;;0.30;;
10827;SDS011;5467;59.334;13.512;2023-03-20T09:54:42;0.30;;;0.30;;
10827;SDS011;5467;59.334;13.512;2023-03-20T09:57:16;0.30;;;0.30;;
10827;SDS011;5467;59.334;13.512;2023-03-20T09:59:47;0.30;;;0.30;;
10827;SDS011;5467;59.334;13.512;2023-03-20T10:02:16;0.40;;;0.40;;
10827;SDS011;5467;59.334;13.512;2023-03-20T10:04:50;0.40;;;0.40;;
10827;SDS011;5467;59.334;13.512;2023-03-20T10:07:19;0.30;;;0.30;;
10827;SDS011;5467;59.334;13.512;2023-03-20T10:09:47;0.30;;;0.30;;
10827;SDS011;5467;59.334;13.512;2023-03-20T10:15:14;0.30;;;0.30;;
10827;SDS011;5467;59.334;13.512;2023-03-20T10:17:52;0.30;;;0.30;;
10827;SDS011;5467;59.334;13.512;2023-03-20T10:20:27;0.40;;;0.40;;
10827;SDS011;5467;59.334;13.512;2023-03-20T10:22:59;0.40;;;0.40;;
10827;SDS011;5467;59.334;13.512;2023-03-20T10:25:33;0.30;;;0.30;;
10827;SDS011;5467;59.334;13.512;2023-03-20T10:28:05;0.30;;;0.30;;
10827;SDS011;5467;59.334;13.512;2023-03-20T10:30:41;0.40;;;0.40;;
10827;SDS011;5467;59.334;13.512;2023-03-20T10:33:24;0.30;;;0.30;;
10827;SDS011;5467;59.334;13.512;2023-03-20T10:36:14;0.30;;;0.30;;
10827;SDS011;5467;59.334;13.512;2023-03-20T10:39:00;0.30;;;0.30;;
10827;SDS011;5467;59.334;13.512;2023-03-20T10:41:35;0.30;;;0.30;;
10827;SDS011;5467;59.334;13.512;2023-03-20T10:44:09;0.30;;;0.30;;
10827;SDS011;5467;59.334;13.512;2023-03-20T10:46:47;0.30;;;0.30;;
10827;SDS011;5467;59.334;13.512;2023-03-20T10:49:17;0.30;;;0.30;;
10827;SDS011;5467;59.334;13.512;2023-03-20T10:51:51;0.30;;;0.30;;
10827;SDS011;5467;59.334;13.512;2023-03-20T10:54:21;0.20;;;0.20;;
10827;SDS011;5467;59.334;13.512;2023-03-20T10:56:52;0.33;;;0.33;;
10827;SDS011;5467;59.334;13.512;2023-03-20T10:59:24;0.30;;;0.30;;
10827;SDS011;5467;59.334;13.512;2023-03-20T11:01:54;0.30;;;0.30;;
10827;SDS011;5467;59.334;13.512;2023-03-20T11:04:21;0.40;;;0.40;;
10827;SDS011;5467;59.334;13.512;2023-03-20T11:06:50;0.30;;;0.30;;
10827;SDS011;5467;59.334;13.512;2023-03-20T11:09:23;0.37;;;0.37;;
10827;SDS011;5467;59.334;13.512;2023-03-20T11:11:55;0.30;;;0.30;;
10827;SDS011;5467;59.334;13.512;2023-03-20T11:14:26;0.30;;;0.30;;
10827;SDS011;5467;59.334;13.512;2023-03-20T11:16:59;0.40;;;0.40;;
10827;SDS011;5467;59.334;13.512;2023-03-20T11:19:31;0.33;;;0.33;;
10827;SDS011;5467;59.334;13.512;2023-03-20T11:21:59;0.40;;;0.40;;
10827;SDS011;5467;59.334;13.512;2023-03-20T11:24:33;0.30;;;0.30;;
10827;SDS011;5467;59.334;13.512;2023-03-20T11:27:03;0.40;;;0.40;;
10827;SDS011;5467;59.334;13.512;2023-03-20T11:29:34;0.40;;;0.40;;
10827;SDS011;5467;59.334;13.512;2023-03-20T11:32:05;0.40;;;0.40;;
10827;SDS011;5467;59.334;13.512;2023-03-20T11:34:39;0.50;;;0.50;;
10827;SDS011;5467;59.334;13.512;2023-03-20T11:37:18;0.43;;;0.43;;
10827;SDS011;5467;59.334;13.512;2023-03-20T11:39:53;0.40;;;0.40;;
10827;SDS011;5467;59.334;13.512;2023-03-20T11:42:24;0.40;;;0.40;;
10827;SDS011;5467;59.334;13.512;2023-03-20T11:44:57;0.40;;;0.40;;
10827;SDS011;5467;59.334;13.512;2023-03-20T11:47:26;0.40;;;0.40;;
10827;SDS011;5467;59.334;13.512;2023-03-20T11:49:57;0.40;;;0.40;;
10827;SDS011;5467;59.334;13.512;2023-03-20T11:52:26;0.40;;;0.40;;
10827;SDS011;5467;59.334;13.512;2023-03-20T11:54:57;0.40;;;0.40;;
10827;SDS011;5467;59.334;13.512;2023-03-20T11:57:31;0.40;;;0.40;;
10827;SDS011;5467;59.334;13.512;2023-03-20T12:00:03;0.40;;;0.40;;
10827;SDS011;5467;59.334;13.512;2023-03-20T12:02:32;0.40;;;0.40;;
10827;SDS011;5467;59.334;13.512;2023-03-20T12:05:05;0.37;;;0.37;;
10827;SDS011;5467;59.334;13.512;2023-03-20T12:07:44;0.37;;;0.37;;
10827;SDS011;5467;59.334;13.512;2023-03-20T12:10:14;0.40;;;0.40;;
10827;SDS011;5467;59.334;13.512;2023-03-20T12:12:44;0.40;;;0.40;;
10827;SDS011;5467;59.334;13.512;2023-03-20T12:15:17;0.40;;;0.40;;
10827;SDS011;5467;59.334;13.512;2023-03-20T12:17:51;0.40;;;0.40;;
10827;SDS011;5467;59.334;13.512;2023-03-20T12:20:26;0.40;;;0.40;;
10827;SDS011;5467;59.334;13.512;2023-03-20T12:23:08;0.40;;;0.40;;
10827;SDS011;5467;59.334;13.512;2023-03-20T12:25:39;0.40;;;0.40;;
10827;SDS011;5467;59.334;13.512;2023-03-20T12:28:13;0.40;;;0.40;;
10827;SDS011;5467;59.334;13.512;2023-03-20T12:33:39;0.40;;;0.40;;
10827;SDS011;5467;59.334;13.512;2023-03-20T12:36:13;0.40;;;0.40;;
10827;SDS011;5467;59.334;13.512;2023-03-20T12:38:42;0.40;;;0.40;;
10827;SDS011;5467;59.334;13.512;2023-03-20T12:41:12;0.40;;;0.40;;
10827;SDS011;5467;59.334;13.512;2023-03-20T12:43:44;0.40;;;0.40;;
10827;SDS011;5467;59.334;13.512;2023-03-20T12:46:27;0.37;;;0.37;;
10827;SDS011;5467;59.334;13.512;2023-03-20T12:48:59;0.43;;;0.43;;
10827;SDS011;5467;59.334;13.512;2023-03-20T12:51:39;0.43;;;0.43;;
10827;SDS011;5467;59.334;13.512;2023-03-20T12:54:23;0.40;;;0.40;;
10827;SDS011;5467;59.334;13.512;2023-03-20T12:57:03;0.40;;;0.40;;
10827;SDS011;5467;59.334;13.512;2023-03-20T12:59:43;0.40;;;0.40;;
10827;SDS011;5467;59.334;13.512;2023-03-20T13:02:33;0.40;;;0.40;;
10827;SDS011;5467;59.334;13.512;2023-03-20T13:05:11;0.40;;;0.40;;
10827;SDS011;5467;59.334;13.512;2023-03-20T13:07:55;0.40;;;0.40;;
10827;SDS011;5467;59.334;13.512;2023-03-20T13:10:45;0.40;;;0.40;;
10827;SDS011;5467;59.334;13.512;2023-03-20T13:13:18;0.40;;;0.40;;
10827;SDS011;5467;59.334;13.512;2023-03-20T13:15:57;0.40;;;0.40;;
10827;SDS011;5467;59.334;13.512;2023-03-20T13:18:36;0.40;;;0.40;;
10827;SDS011;5467;59.334;13.512;2023-03-20T13:21:15;0.40;;;0.40;;
10827;SDS011;5467;59.334;13.512;2023-03-20T13:23:50;0.40;;;0.40;;
10827;SDS011;5467;59.334;13.512;2023-03-20T13:26:28;0.40;;;0.40;;
10827;SDS011;5467;59.334;13.512;2023-03-20T13:29:04;0.40;;;0.40;;
10827;SDS011;5467;59.334;13.512;2023-03-20T13:31:39;0.40;;;0.40;;
10827;SDS011;5467;59.334;13.512;2023-03-20T13:34:20;0.40;;;0.40;;
10827;SDS011;5467;59.334;13.512;2023-03-20T13:36:59;0.40;;;0.40;;
10827;SDS011;5467;59.334;13.512;2023-03-20T13:39:32;0.40;;;0.40;;
10827;SDS011;5467;59.334;13.512;2023-03-20T13:42:03;0.40;;;0.40;;
10827;SDS011;5467;59.334;13.512;2023-03-20T13:44:35;0.40;;;0.40;;
10827;SDS011;5467;59.334;13.512;2023-03-20T13:47:04;0.43;;;0.43;;
10827;SDS011;5467;59.334;13.512;2023-03-20T13:49:37;0.40;;;0.40;;
10827;SDS011;5467;59.334;13.512;2023-03-20T13:52:11;0.40;;;0.40;;
10827;SDS011;5467;59.334;13.512;2023-03-20T13:54:49;0.43;;;0.43;;
10827;SDS011;5467;59.334;13.512;2023-03-20T13:57:27;0.50;;;0.50;;
10827;SDS011;5467;59.334;13.512;2023-03-20T14:00:24;0.50;;;0.50;;
10827;SDS011;5467;59.334;13.512;2023-03-20T14:03:10;0.50;;;0.50;;
10827;SDS011;5467;59.334;13.512;2023-03-20T14:05:45;0.40;;;0.40;;
10827;SDS011;5467;59.334;13.512;2023-03-20T14:08:20;0.40;;;0.40;;
10827;SDS011;5467;59.334;13.512;2023-03-20T14:11:05;0.50;;;0.50;;
10827;SDS011;5467;59.334;13.512;2023-03-20T14:13:42;0.40;;;0.40;;
10827;SDS011;5467;59.334;13.512;2023-03-20T14:16:13;0.50;;;0.50;;
10827;SDS011;5467;59.334;13.512;2023-03-20T14:18:44;0.50;;;0.50;;
10827;SDS011;5467;59.334;13.512;2023-03-20T14:21:17;0.40;;;0.40;;
10827;SDS011;5467;59.334;13.512;2023-03-20T14:23:47;0.50;;;0.50;;
10827;SDS011;5467;59.334;13.512;2023-03-20T14:26:19;0.40;;;0.40;;
10827;SDS011;5467;59.334;13.512;2023-03-20T14:28:52;0.50;;;0.50;;
10827;SDS011;5467;59.334;13.512;2023-03-20T14:31:25;0.50;;;0.50;;
10827;SDS011;5467;59.334;13.512;2023-03-20T14:33:58;0.40;;;0.40;;
10827;SDS011;5467;59.334;13.512;2023-03-20T14:36:43;0.50;;;0.50;;
10827;SDS011;5467;59.334;13.512;2023-03-20T14:42:16;0.50;;;0.50;;
10827;SDS011;5467;59.334;13.512;2023-03-20T14:44:53;0.50;;;0.50;;
10827;SDS011;5467;59.334;13.512;2023-03-20T14:47:44;0.40;;;0.40;;
10827;SDS011;5467;59.334;13.512;2023-03-20T14:50:19;0.50;;;0.50;;
10827;SDS011;5467;59.334;13.512;2023-03-20T14:52:53;0.43;;;0.43;;
10827;SDS011;5467;59.334;13.512;2023-03-20T14:55:30;0.60;;;0.60;;
10827;SDS011;5467;59.334;13.512;2023-03-20T14:58:03;0.50;;;0.50;;
10827;SDS011;5467;59.334;13.512;2023-03-20T15:00:35;0.57;;;0.57;;
10827;SDS011;5467;59.334;13.512;2023-03-20T15:03:12;0.50;;;0.50;;
10827;SDS011;5467;59.334;13.512;2023-03-20T15:05:41;0.40;;;0.40;;
10827;SDS011;5467;59.334;13.512;2023-03-20T15:08:13;0.50;;;0.50;;
10827;SDS011;5467;59.334;13.512;2023-03-20T15:10:46;0.50;;;0.50;;
10827;SDS011;5467;59.334;13.512;2023-03-20T15:13:16;0.40;;;0.40;;
10827;SDS011;5467;59.334;13.512;2023-03-20T15:15:51;0.50;;;0.50;;
10827;SDS011;5467;59.334;13.512;2023-03-20T15:18:20;0.50;;;0.50;;
10827;SDS011;5467;59.334;13.512;2023-03-20T15:20:49;0.50;;;0.50;;
10827;SDS011;5467;59.334;13.512;2023-03-20T15:23:17;0.47;;;0.47;;
10827;SDS011;5467;59.334;13.512;2023-03-20T15:25:45;0.50;;;0.50;;
10827;SDS011;5467;59.334;13.512;2023-03-20T15:28:15;0.50;;;0.50;;
10827;SDS011;5467;59.334;13.512;2023-03-20T15:30:44;0.40;;;0.40;;
10827;SDS011;5467;59.334;13.512;2023-03-20T15:33:14;0.50;;;0.50;;